Time;durP1;ratioP1;P1;durP2;ratioP2;P2;SDS_P1;SDS_P2;PMS_P1;PMS_P2;Temp;Humidity;BMP_temperature;BMP_pressure;BME280_temperature;BME280_humidity;BME280_pressure;Samples;Min_cycle;Max_cycle;Signal;HPM_P1;HPM_P2
2022/04/03 00:01:30;;;;;;;9.07;5.13;;;;;;;6.81;100.00;99763.28;4937173;29;20036;-84
2022/04/03 00:03:55;;;;;;;9.23;4.57;;;;;;;7.03;97.26;99775.88;4929644;29;20036;-85
2022/04/03 00:06:22;;;;;;;8.75;4.97;;;;;;;7.08;95.91;99771.00;4960213;29;20072;-84
2022/04/03 00:08:48;;;;;;;8.30;5.18;;;;;;;7.16;94.73;99774.47;4948671;29;20099;-84
2022/04/03 00:11:14;;;;;;;10.73;4.88;;;;;;;7.01;94.95;99775.22;4941153;29;20052;-88
2022/04/03 00:13:40;;;;;;;11.90;5.30;;;;;;;6.60;98.47;99782.91;4941133;29;20072;-86
2022/04/03 00:16:06;;;;;;;10.35;6.03;;;;;;;6.26;100.00;99774.13;4948867;29;20004;-86
2022/04/03 00:18:33;;;;;;;9.80;5.50;;;;;;;6.22;100.00;99778.84;4961268;28;20035;-85
2022/04/03 00:20:59;;;;;;;8.50;5.22;;;;;;;6.33;100.00;99785.66;4928150;29;20102;-87
2022/04/03 00:23:25;;;;;;;8.68;5.38;;;;;;;6.39;100.00;99794.78;4939019;29;20044;-85
2022/04/03 00:25:52;;;;;;;11.20;5.82;;;;;;;6.31;100.00;99787.63;4941487;29;20020;-89
2022/04/03 00:28:18;;;;;;;8.82;5.50;;;;;;;6.38;100.00;99790.47;4941515;29;20056;-83
2022/04/03 00:30:44;;;;;;;9.98;5.82;;;;;;;6.34;100.00;99803.09;4925375;29;20032;-88
2022/04/03 00:33:11;;;;;;;12.88;5.53;;;;;;;6.34;100.00;99795.22;4940354;29;20084;-87
2022/04/03 00:35:37;;;;;;;10.73;5.47;;;;;;;6.25;100.00;99796.13;4941669;29;20475;-89
2022/04/03 00:38:03;;;;;;;11.45;5.45;;;;;;;6.26;100.00;99799.59;4941353;29;20091;-84
2022/04/03 00:40:32;;;;;;;11.60;6.38;;;;;;;6.28;100.00;99797.63;4925436;29;20083;-83
2022/04/03 00:42:57;;;;;;;8.13;5.20;;;;;;;6.20;100.00;99801.00;4925165;29;20036;-83
2022/04/03 00:45:23;;;;;;;12.30;5.75;;;;;;;6.30;100.00;99807.03;4925763;29;20084;-85
2022/04/03 00:47:52;;;;;;;16.83;6.15;;;;;;;6.30;99.98;99806.22;4941233;29;20040;-89
2022/04/03 00:54:08;;;;;;;14.10;6.57;;;;;;;6.46;98.02;99807.19;4942206;29;20064;-89
2022/04/03 00:56:36;;;;;;;10.93;5.95;;;;;;;6.33;98.54;99811.19;4942499;29;20049;-88
2022/04/03 00:59:25;;;;;;;14.15;6.93;;;;;;;6.22;99.36;99809.59;4926335;29;20053;-85
2022/04/03 01:01:50;;;;;;;10.85;6.10;;;;;;;6.17;100.00;99811.84;4925921;29;20032;-86
2022/04/03 01:04:16;;;;;;;11.15;5.57;;;;;;;6.20;99.97;99812.38;4940497;29;20031;-87
2022/04/03 01:06:42;;;;;;;11.05;5.22;;;;;;;6.35;98.28;99817.94;4941873;29;20024;-88
2022/04/03 01:09:10;;;;;;;9.75;5.18;;;;;;;6.38;98.03;99814.16;4941887;29;20032;-88
2022/04/03 01:11:37;;;;;;;12.85;5.00;;;;;;;6.24;97.79;99819.00;4925483;29;20032;-84
2022/04/03 01:14:05;;;;;;;15.75;6.28;;;;;;;6.26;99.69;99826.75;4910206;29;20040;-87
2022/04/03 01:16:33;;;;;;;16.92;7.00;;;;;;;6.35;98.18;99825.00;4938992;29;20034;-88
2022/04/03 01:18:59;;;;;;;11.07;5.03;;;;;;;6.61;97.87;99831.94;4924914;29;20043;-86
2022/04/03 01:21:27;;;;;;;11.82;5.30;;;;;;;6.83;95.80;99829.81;4940245;29;20044;-86
2022/04/03 01:23:54;;;;;;;12.27;5.40;;;;;;;6.92;93.94;99832.34;4938461;29;20036;-85
2022/04/03 01:26:19;;;;;;;11.63;4.95;;;;;;;6.75;93.49;99834.03;4917297;29;20464;-87
2022/04/03 01:28:45;;;;;;;10.02;5.00;;;;;;;6.75;92.83;99833.19;4931924;29;20040;-85
2022/04/03 01:31:30;;;;;;;10.63;4.72;;;;;;;6.55;94.31;99832.56;4900533;29;20050;-84
2022/04/03 01:33:56;;;;;;;10.75;5.55;;;;;;;6.50;95.01;99837.44;4938401;29;20064;-87
2022/04/03 01:36:28;;;;;;;11.30;5.40;;;;;;;6.30;96.35;99833.34;4941397;29;20028;-87
2022/04/03 01:38:56;;;;;;;7.85;4.80;;;;;;;6.49;95.67;99841.09;4941859;29;20036;-86
2022/04/03 01:41:22;;;;;;;8.50;5.03;;;;;;;6.55;94.30;99840.47;4936846;29;20064;-85
2022/04/03 01:43:50;;;;;;;9.02;4.88;;;;;;;6.21;95.55;99835.09;4941105;29;20108;-88
2022/04/03 01:46:16;;;;;;;11.95;4.90;;;;;;;5.92;98.47;99831.84;4925143;29;20028;-87
2022/04/03 01:48:47;;;;;;;9.38;5.43;;;;;;;5.87;100.00;99833.25;4940256;29;20180;-88
2022/04/03 01:51:12;;;;;;;11.43;5.43;;;;;;;5.93;99.79;99840.56;4921662;29;20035;-87
2022/04/03 01:53:38;;;;;;;12.40;5.53;;;;;;;5.92;100.00;99838.91;4924757;29;20027;-89
2022/04/03 01:56:07;;;;;;;10.65;5.07;;;;;;;6.02;99.19;99840.50;4941275;29;20020;-87
2022/04/03 01:58:34;;;;;;;14.82;5.32;;;;;;;6.18;97.32;99845.06;4940975;29;20032;-86
2022/04/03 02:01:00;;;;;;;10.07;5.72;;;;;;;6.42;96.23;99837.41;4940780;29;20051;-84
2022/04/03 02:03:27;;;;;;;10.73;5.75;;;;;;;6.29;96.03;99847.50;4941027;29;20031;-86
2022/04/03 02:05:53;;;;;;;8.65;5.68;;;;;;;6.25;96.77;99843.50;4941259;29;20020;-89
2022/04/03 02:08:19;;;;;;;8.98;4.97;;;;;;;6.28;96.75;99848.47;4941012;29;20020;-89
2022/04/03 02:10:45;;;;;;;10.52;5.78;;;;;;;6.24;95.68;99845.31;4940889;29;20024;-87
2022/04/03 02:13:11;;;;;;;11.38;5.72;;;;;;;6.42;95.06;99842.66;4940920;29;20108;-88
2022/04/03 02:15:38;;;;;;;11.50;5.65;;;;;;;6.42;94.34;99842.66;4940669;29;20099;-87
2022/04/03 02:18:04;;;;;;;15.48;5.63;;;;;;;6.10;95.77;99852.88;4924465;29;20031;-84
2022/04/03 02:20:31;;;;;;;9.70;5.13;;;;;;;6.18;96.31;99853.81;4924334;29;20013;-87
2022/04/03 02:22:58;;;;;;;10.20;5.53;;;;;;;6.09;96.15;99846.81;4941017;29;20028;-86
2022/04/03 02:25:24;;;;;;;13.27;5.25;;;;;;;6.17;95.51;99859.19;4941208;29;20064;-88
2022/04/03 02:27:52;;;;;;;10.70;5.78;;;;;;;5.78;99.39;99852.53;4940750;29;20081;-86
2022/04/03 02:30:36;;;;;;;10.07;5.60;;;;;;;5.54;100.00;99848.63;4924432;29;20040;-89
2022/04/03 02:33:05;;;;;;;9.15;5.43;;;;;;;5.71;100.00;99855.75;4940885;29;20083;-86
2022/04/03 02:35:31;;;;;;;8.57;5.22;;;;;;;5.57;100.00;99855.41;4940801;29;20032;-86
2022/04/03 02:37:57;;;;;;;11.10;5.22;;;;;;;5.59;100.00;99867.44;4941031;29;20044;-86
2022/04/03 02:40:27;;;;;;;10.57;5.32;;;;;;;5.70;99.93;99867.22;4924332;29;20065;-88
2022/04/03 02:42:53;;;;;;;10.70;5.20;;;;;;;5.71;100.00;99874.16;4940447;29;20028;-87
2022/04/03 02:45:19;;;;;;;8.35;5.00;;;;;;;5.87;99.76;99867.44;4924490;29;20044;-87
2022/04/03 02:47:52;;;;;;;11.50;5.85;;;;;;;5.85;99.35;99869.38;4940042;29;20036;-87
2022/04/03 02:50:56;;;;;;;12.13;5.53;;;;;;;5.90;99.10;99882.94;4924369;29;20036;-86
2022/04/03 02:53:22;;;;;;;9.98;4.55;;;;;;;5.90;97.84;99880.31;4940356;29;20092;-86
2022/04/03 02:55:47;;;;;;;12.13;5.32;;;;;;;5.99;98.28;99882.03;4940236;29;20039;-85
2022/04/03 02:58:13;;;;;;;9.05;5.60;;;;;;;5.78;97.76;99892.78;4940330;29;20048;-87
2022/04/03 03:00:57;;;;;;;6.97;5.05;;;;;;;5.66;99.10;99892.19;4943250;29;20043;-88
2022/04/03 03:03:23;;;;;;;10.43;5.70;;;;;;;5.58;99.39;99888.59;4943923;29;20058;-88
2022/04/03 03:05:48;;;;;;;12.63;5.03;;;;;;;5.69;99.85;99899.75;4943572;29;20020;-86
2022/04/03 03:08:14;;;;;;;12.43;5.72;;;;;;;5.66;99.35;99896.59;4927554;29;20051;-85
2022/04/03 03:10:42;;;;;;;8.98;5.53;;;;;;;5.50;100.00;99897.19;4943955;29;20040;-90
2022/04/03 03:13:08;;;;;;;12.07;5.65;;;;;;;5.44;100.00;99889.06;4943572;29;20055;-88
2022/04/03 03:15:34;;;;;;;13.93;6.10;;;;;;;5.52;100.00;99900.53;4926655;29;20103;-88
2022/04/03 03:18:00;;;;;;;12.63;5.70;;;;;;;5.49;100.00;99898.19;4943454;29;20031;-87
2022/04/03 03:20:25;;;;;;;11.23;5.72;;;;;;;5.50;100.00;99897.19;4943423;29;20031;-87
2022/04/03 03:22:52;;;;;;;8.77;5.72;;;;;;;5.69;100.00;99896.31;4943532;29;20028;-86
2022/04/03 03:25:18;;;;;;;10.05;5.70;;;;;;;5.90;99.84;99901.34;4943724;29;20031;-87
2022/04/03 03:27:46;;;;;;;11.70;5.68;;;;;;;5.89;98.50;99903.16;4927165;29;20027;-87
2022/04/03 03:30:14;;;;;;;9.73;5.63;;;;;;;5.90;97.54;99906.63;4943154;29;20024;-87
2022/04/03 03:32:39;;;;;;;12.13;5.95;;;;;;;6.01;97.07;99906.38;4942841;29;20048;-84
2022/04/03 03:35:05;;;;;;;10.93;5.38;;;;;;;6.19;96.54;99904.63;4943605;29;20052;-85
2022/04/03 03:37:31;;;;;;;13.73;6.03;;;;;;;5.80;96.62;99921.59;4943545;29;20047;-89
2022/04/03 03:39:59;;;;;;;9.15;6.03;;;;;;;5.82;97.36;99917.81;4942759;29;20430;-88
2022/04/03 03:42:25;;;;;;;11.93;5.53;;;;;;;5.82;96.95;99922.25;4942981;29;20045;-88
2022/04/03 03:44:50;;;;;;;11.32;5.72;;;;;;;5.88;97.08;99924.31;4926313;29;20039;-86
2022/04/03 03:47:20;;;;;;;11.63;5.20;;;;;;;5.66;97.84;99928.97;4941106;29;20036;-87
2022/04/03 03:50:06;;;;;;;9.88;6.07;;;;;;;5.48;99.41;99933.31;4937616;29;20044;-85
2022/04/03 03:52:31;;;;;;;11.05;5.90;;;;;;;5.46;99.97;99937.91;4916327;29;20092;-84
2022/04/03 03:54:57;;;;;;;10.18;6.43;;;;;;;5.60;98.58;99924.28;4915654;29;20028;-86
2022/04/03 03:57:24;;;;;;;13.27;6.18;;;;;;;5.63;99.78;99942.38;4914745;29;20044;-88
2022/04/03 03:59:52;;;;;;;8.27;5.78;;;;;;;5.80;97.55;99943.41;4932492;29;20036;-87
2022/04/03 04:02:18;;;;;;;13.13;6.53;;;;;;;5.88;95.79;99942.72;4935169;29;20055;-88
2022/04/03 04:04:44;;;;;;;13.25;7.05;;;;;;;5.74;97.29;99950.09;4935486;29;20050;-85
2022/04/03 04:07:12;;;;;;;15.10;6.28;;;;;;;5.88;97.70;99945.34;4934698;29;20032;-88
2022/04/03 04:09:39;;;;;;;9.73;5.63;;;;;;;5.88;96.78;99950.63;4915777;29;20071;-86
2022/04/03 04:12:05;;;;;;;12.77;6.65;;;;;;;5.76;97.10;99949.97;4930919;29;20033;-89
2022/04/03 04:14:31;;;;;;;11.23;6.40;;;;;;;6.05;96.39;99955.09;4919893;29;20055;-85
2022/04/03 04:16:56;;;;;;;9.60;6.43;;;;;;;6.03;96.02;99952.59;4934729;29;20067;-85
2022/04/03 04:22:47;;;;;;;13.65;7.95;;;;;;;5.78;98.08;99962.94;4917698;29;20040;-86
2022/04/03 04:25:14;;;;;;;11.48;6.75;;;;;;;5.81;97.34;99973.16;4933228;29;20040;-84
2022/04/03 04:27:44;;;;;;;9.38;6.57;;;;;;;5.72;98.18;99978.34;4918313;29;20104;-84
2022/04/03 04:30:13;;;;;;;10.63;6.45;;;;;;;5.60;98.78;99989.19;4923779;29;20428;-86
2022/04/03 04:32:39;;;;;;;10.65;7.10;;;;;;;5.54;98.98;99987.94;4941464;29;20036;-83
2022/04/03 04:35:05;;;;;;;11.02;7.00;;;;;;;5.38;100.00;99992.97;4933184;29;20036;-85
2022/04/03 04:37:32;;;;;;;13.45;7.22;;;;;;;5.10;100.00;99985.97;4898646;29;20032;-85
2022/04/03 04:39:58;;;;;;;15.07;7.43;;;;;;;5.01;100.00;99989.41;4913291;29;20060;-86
2022/04/03 04:42:24;;;;;;;13.20;7.20;;;;;;;5.04;100.00;99994.38;4932030;29;20044;-88
2022/04/03 04:44:50;;;;;;;13.80;7.63;;;;;;;5.04;100.00;99997.00;4926765;29;20121;-90
2022/04/03 04:47:15;;;;;;;13.73;7.50;;;;;;;4.93;100.00;99995.38;4925402;29;20032;-87
2022/04/03 04:49:42;;;;;;;17.27;8.25;;;;;;;4.83;100.00;100005.06;4924897;29;20065;-86
2022/04/03 04:52:07;;;;;;;15.23;8.45;;;;;;;4.80;100.00;100010.59;4925310;29;20040;-87
2022/04/03 04:54:35;;;;;;;13.93;7.40;;;;;;;4.87;100.00;100016.13;4927355;29;20036;-89
2022/04/03 04:57:00;;;;;;;15.00;7.10;;;;;;;4.95;100.00;100009.19;4886973;29;20035;-89
2022/04/03 04:59:26;;;;;;;16.13;7.85;;;;;;;4.89;100.00;100017.63;4919512;29;20396;-89
2022/04/03 05:01:56;;;;;;;13.70;8.30;;;;;;;4.88;100.00;100018.59;4919462;29;20489;-90
2022/04/03 05:04:25;;;;;;;14.80;8.48;;;;;;;4.89;100.00;100028.13;4921700;29;20048;-90
2022/04/03 05:06:54;;;;;;;11.05;7.45;;;;;;;4.86;100.00;100025.78;4924509;29;20039;-88
2022/04/03 05:09:20;;;;;;;12.77;8.15;;;;;;;4.83;100.00;100031.31;4925454;29;20505;-86
2022/04/03 05:11:46;;;;;;;14.27;8.48;;;;;;;4.87;100.00;100034.50;4922032;29;20047;-90
2022/04/03 05:14:13;;;;;;;15.30;9.25;;;;;;;4.86;100.00;100038.91;4922420;29;20496;-89
2022/04/03 05:16:39;;;;;;;15.10;8.52;;;;;;;4.88;100.00;100041.38;4924799;29;20028;-87
2022/04/03 05:19:11;;;;;;;12.65;8.27;;;;;;;5.06;100.00;100050.25;4913341;29;20092;-85
2022/04/03 05:21:37;;;;;;;16.05;8.20;;;;;;;5.29;100.00;100050.78;4927061;29;20020;-87
2022/04/03 05:24:03;;;;;;;13.18;7.55;;;;;;;5.61;100.00;100049.47;4908359;29;20476;-84
2022/04/03 05:26:29;;;;;;;15.40;6.70;;;;;;;5.66;100.00;100054.31;4933465;29;20040;-90
2022/04/03 05:28:55;;;;;;;13.32;7.68;;;;;;;5.69;100.00;100059.31;4911701;29;20044;-88
2022/04/03 05:31:21;;;;;;;11.60;7.53;;;;;;;6.09;100.00;100062.53;4933601;29;20047;-89
2022/04/03 05:33:46;;;;;;;11.45;7.13;;;;;;;6.19;100.00;100070.38;4939872;29;20060;-87
2022/04/03 05:36:11;;;;;;;9.93;6.85;;;;;;;6.60;97.98;100076.94;4940989;29;20052;-89
2022/04/03 05:38:37;;;;;;;11.52;7.32;;;;;;;6.31;95.92;100084.16;4937300;29;20452;-91
2022/04/03 05:41:03;;;;;;;16.02;7.82;;;;;;;6.58;94.37;100085.00;4925933;29;20130;-90
2022/04/03 05:43:29;;;;;;;15.23;7.93;;;;;;;6.58;93.13;100087.63;4921318;29;20040;-91
2022/04/03 05:45:54;;;;;;;12.23;7.57;;;;;;;6.55;93.02;100093.19;4922478;29;20050;-89
2022/04/03 05:48:20;;;;;;;15.15;7.60;;;;;;;6.78;92.52;100095.41;4923251;29;20047;-89
2022/04/03 05:50:46;;;;;;;10.07;7.30;;;;;;;6.89;90.22;100103.13;4905490;29;20024;-87
2022/04/03 05:53:12;;;;;;;14.18;8.18;;;;;;;7.12;89.07;100114.88;4920506;29;20144;-88
2022/04/03 05:55:38;;;;;;;13.52;7.95;;;;;;;7.16;87.67;100103.03;4907375;29;20040;-88
2022/04/03 05:58:04;;;;;;;13.93;7.65;;;;;;;7.54;87.11;100110.63;4874887;29;20089;-91
2022/04/03 06:00:30;;;;;;;13.50;7.53;;;;;;;7.73;83.26;100121.00;4922685;29;20029;-90
2022/04/03 06:03:01;;;;;;;16.27;7.80;;;;;;;7.87;83.48;100129.34;4922975;29;20040;-89
2022/04/03 06:05:34;;;;;;;14.02;7.65;;;;;;;7.76;82.60;100127.78;4928115;23;20070;-91
2022/04/03 06:08:09;;;;;;;15.23;8.20;;;;;;;7.55;84.67;100130.75;4959561;29;20043;-88
2022/04/03 06:10:35;;;;;;;14.80;8.30;;;;;;;7.65;83.20;100134.16;4929480;29;20043;-92
2022/04/03 06:13:03;;;;;;;13.02;7.38;;;;;;;7.62;83.06;100134.41;4942369;29;20125;-92
2022/04/03 06:15:36;;;;;;;12.68;7.18;;;;;;;7.69;83.26;100135.47;4939304;29;20031;-90
2022/04/03 06:18:05;;;;;;;14.32;8.15;;;;;;;7.44;83.99;100136.25;4942558;29;20054;-90
2022/04/03 06:20:31;;;;;;;15.18;7.85;;;;;;;7.38;85.52;100142.13;4960715;29;20028;-88
2022/04/03 06:22:57;;;;;;;16.73;8.00;;;;;;;7.37;85.92;100145.75;4961342;29;20043;-89
2022/04/03 06:25:23;;;;;;;14.70;8.13;;;;;;;7.50;85.67;100145.34;4961194;29;20032;-92
2022/04/03 06:27:52;;;;;;;14.30;8.00;;;;;;;7.24;87.58;100151.41;4947911;29;20049;-88
2022/04/03 06:30:37;;;;;;;16.08;8.48;;;;;;;7.53;87.94;100145.88;4949993;29;20039;-90
2022/04/03 06:38:26;;;;;;;15.00;7.73;;;;;;;8.38;81.43;100153.13;4151201;27;20149;-89
2022/04/03 06:40:57;;;;;;;16.38;9.25;;;;;;;8.32;81.86;100160.84;4915066;29;20288;-89
2022/04/03 06:43:25;;;;;;;15.35;9.18;;;;;;;8.86;80.21;100165.72;4924107;29;20051;-90
2022/04/03 06:45:55;;;;;;;16.67;8.77;;;;;;;10.25;72.85;100173.63;4913045;29;20050;-88
2022/04/03 06:48:25;;;;;;;15.63;8.38;;;;;;;12.06;66.16;100172.38;4909465;29;20040;-90
2022/04/03 06:50:51;;;;;;;12.98;7.68;;;;;;;12.51;60.28;100177.53;4909259;29;20063;-90
2022/04/03 06:53:38;;;;;;;14.55;7.45;;;;;;;13.71;56.90;100190.28;4918985;29;20036;-88
2022/04/03 06:56:04;;;;;;;14.55;7.68;;;;;;;14.13;55.69;100188.59;4931695;29;20036;-91
2022/04/03 06:58:29;;;;;;;15.95;8.23;;;;;;;13.55;56.64;100193.19;4930889;29;20064;-90
2022/04/03 07:04:42;;;;;;;12.43;6.72;;;;;;;14.44;52.36;100213.06;4939280;29;20110;-91
2022/04/03 07:07:08;;;;;;;15.63;6.82;;;;;;;12.57;59.18;100211.38;4926192;29;20032;-90
2022/04/03 07:09:40;;;;;;;14.02;8.05;;;;;;;11.99;62.99;100213.91;4943954;29;20020;-91
2022/04/03 07:12:14;;;;;;;10.30;7.13;;;;;;;11.55;65.42;100211.88;5028975;23;20023;-89
2022/04/03 07:14:39;;;;;;;16.55;7.95;;;;;;;10.93;67.70;100210.22;4964955;28;20047;-89
2022/04/03 07:17:08;;;;;;;17.05;8.80;;;;;;;10.68;68.97;100207.66;4973672;29;20034;-86
2022/04/03 07:19:34;;;;;;;16.98;8.45;;;;;;;11.33;66.72;100218.00;4941890;29;20036;-89
2022/04/03 07:22:00;;;;;;;14.93;8.13;;;;;;;11.45;65.76;100213.94;4945339;29;20451;-87
2022/04/03 07:24:26;;;;;;;13.43;8.27;;;;;;;12.18;60.10;100218.72;4928064;29;20044;-89
2022/04/03 07:26:55;;;;;;;13.27;8.10;;;;;;;12.12;60.65;100219.47;4975393;28;20027;-90
2022/04/03 07:29:21;;;;;;;15.93;8.77;;;;;;;12.18;59.43;100224.03;4924203;29;20046;-91
2022/04/03 07:31:51;;;;;;;15.60;8.25;;;;;;;12.34;59.15;100221.22;4960204;29;20521;-92
2022/04/03 07:34:20;;;;;;;16.90;8.23;;;;;;;12.54;58.31;100218.88;4940582;29;20055;-88
2022/04/03 07:36:46;;;;;;;14.45;8.05;;;;;;;12.64;57.29;100224.75;4924309;29;20039;-90
2022/04/03 07:39:12;;;;;;;13.45;7.70;;;;;;;12.46;57.49;100230.44;4944783;29;20067;-88
2022/04/03 07:41:38;;;;;;;16.23;8.40;;;;;;;13.13;54.93;100225.03;4961953;29;20043;-89
2022/04/03 07:44:08;;;;;;;13.38;7.78;;;;;;;13.69;52.88;100242.06;4945625;29;20038;-88
2022/04/03 07:46:37;;;;;;;10.52;6.82;;;;;;;14.98;50.00;100240.69;4957638;28;20090;-90
2022/04/03 07:49:04;;;;;;;13.10;7.05;;;;;;;15.79;47.29;100244.31;4960296;29;20175;-90
2022/04/03 07:51:30;;;;;;;12.68;7.68;;;;;;;14.87;48.93;100248.44;4928808;29;20043;-89
2022/04/03 07:53:56;;;;;;;16.30;7.32;;;;;;;15.01;47.50;100250.97;4930198;29;20031;-89
2022/04/03 07:56:22;;;;;;;12.55;6.88;;;;;;;13.89;51.13;100259.91;4960001;29;21508;-88
2022/04/03 07:58:48;;;;;;;15.70;7.55;;;;;;;13.74;52.58;100256.50;4935667;29;20043;-91
2022/04/03 08:01:15;;;;;;;15.32;7.68;;;;;;;15.08;48.85;100256.31;4941803;29;20067;-91
2022/04/03 08:03:40;;;;;;;14.32;7.18;;;;;;;15.77;46.55;100257.06;4942404;29;20031;-88
2022/04/03 08:06:06;;;;;;;11.20;6.78;;;;;;;16.28;45.15;100269.84;4925344;29;20075;-91
2022/04/03 08:08:32;;;;;;;14.90;7.50;;;;;;;14.38;49.66;100264.50;4946730;29;20498;-88
2022/04/03 08:10:58;;;;;;;14.20;7.78;;;;;;;14.22;50.82;100270.88;4952541;29;20063;-88
2022/04/03 08:13:24;;;;;;;17.30;8.02;;;;;;;14.49;50.20;100277.28;4953812;29;20459;-91
2022/04/03 08:15:54;;;;;;;13.73;7.30;;;;;;;14.22;50.64;100280.75;4919936;29;20071;-90
2022/04/03 08:18:22;;;;;;;12.98;7.18;;;;;;;14.91;48.39;100274.50;4951199;29;20082;-87
2022/04/03 08:20:48;;;;;;;13.48;6.53;;;;;;;15.51;45.44;100289.03;4955485;29;20079;-86
2022/04/03 08:23:14;;;;;;;12.73;6.82;;;;;;;15.30;45.77;100286.44;4961206;29;20032;-93
2022/04/03 08:25:39;;;;;;;22.52;7.00;;;;;;;15.42;45.46;100285.66;4934609;29;20119;-89
2022/04/03 08:28:07;;;;;;;13.57;6.10;;;;;;;15.01;44.89;100301.66;4957927;29;20162;-88
2022/04/03 08:30:40;;;;;;;11.48;5.45;;;;;;;14.97;45.47;100308.44;4939797;29;20040;-89
2022/04/03 08:33:08;;;;;;;10.13;5.45;;;;;;;14.90;45.95;100296.06;4957883;29;20103;-89
2022/04/03 08:35:38;;;;;;;10.43;5.30;;;;;;;15.68;44.37;100300.16;4957723;29;20047;-89
2022/04/03 08:38:05;;;;;;;12.18;5.85;;;;;;;15.58;44.80;100295.19;4957648;29;20046;-88
2022/04/03 08:40:32;;;;;;;8.45;5.40;;;;;;;15.91;44.57;100295.28;4957786;29;20051;-88
2022/04/03 08:43:03;;;;;;;12.40;6.95;;;;;;;15.77;44.39;100297.13;4944640;29;20036;-91
2022/04/03 08:45:32;;;;;;;14.02;6.20;;;;;;;15.15;45.76;100304.41;4932984;29;20078;-90
2022/04/03 08:48:00;;;;;;;11.55;5.93;;;;;;;15.92;44.07;100303.13;4944786;29;20492;-93
2022/04/03 08:50:34;;;;;;;11.77;5.47;;;;;;;15.90;42.51;100315.06;4961390;29;20453;-90
2022/04/03 08:53:02;;;;;;;12.00;5.68;;;;;;;15.74;43.01;100316.22;4943780;29;20042;-92
2022/04/03 08:55:34;;;;;;;8.60;4.68;;;;;;;14.96;44.86;100321.97;4959546;29;20411;-91
2022/04/03 08:58:02;;;;;;;7.38;4.53;;;;;;;15.76;42.77;100332.06;4962304;28;20039;-90
2022/04/03 09:00:47;;;;;;;6.00;4.15;;;;;;;14.93;43.84;100333.84;4961775;29;20031;-90
2022/04/03 09:03:14;;;;;;;7.90;4.85;;;;;;;13.88;46.95;100338.19;4957315;29;20555;-89
2022/04/03 09:05:42;;;;;;;10.38;4.68;;;;;;;13.70;47.59;100335.09;4962853;29;20039;-90
2022/04/03 09:08:10;;;;;;;12.63;5.10;;;;;;;13.01;50.38;100343.56;4951752;29;20047;-91
2022/04/03 09:10:41;;;;;;;7.15;3.35;;;;;;;12.54;50.98;100333.19;4943990;29;20403;-91
2022/04/03 09:13:09;;;;;;;10.80;4.47;;;;;;;12.16;53.86;100341.13;4927465;29;20058;-91
2022/04/03 09:15:35;;;;;;;10.50;4.05;;;;;;;12.24;54.64;100325.13;4930631;29;20372;-90
2022/04/03 09:18:03;;;;;;;8.00;3.53;;;;;;;12.98;52.24;100338.59;4960369;29;20162;-88
2022/04/03 09:20:36;;;;;;;7.32;2.92;;;;;;;12.87;51.69;100347.84;4923254;29;20055;-86
2022/04/03 09:23:04;;;;;;;10.57;2.42;;;;;;;12.85;52.10;100350.69;4953947;29;20039;-91
2022/04/03 09:25:31;;;;;;;5.35;2.67;;;;;;;13.53;50.51;100338.16;4962891;29;20123;-90
2022/04/03 09:28:05;;;;;;;9.27;3.45;;;;;;;13.83;48.83;100345.09;4944101;29;20039;-89
2022/04/03 09:30:52;;;;;;;11.93;3.33;;;;;;;14.20;48.55;100358.22;4960965;29;20094;-90
2022/04/03 09:33:20;;;;;;;8.60;3.33;;;;;;;13.72;48.98;100345.59;4958513;29;20043;-88
2022/04/03 09:36:01;;;;;;;10.27;3.70;;;;;;;14.06;48.00;100355.59;4960256;29;20036;-92
2022/04/03 09:38:32;;;;;;;8.48;4.20;;;;;;;14.15;48.10;100349.16;4959960;29;20046;-90
2022/04/03 09:41:01;;;;;;;13.75;4.00;;;;;;;13.56;48.93;100353.75;4957340;29;20067;-88
2022/04/03 09:43:34;;;;;;;11.68;4.10;;;;;;;13.34;50.23;100355.53;4959637;29;20046;-90
2022/04/03 09:46:06;;;;;;;9.85;4.38;;;;;;;12.74;52.03;100359.09;4958123;29;20031;-86
2022/04/03 09:48:38;;;;;;;12.52;4.38;;;;;;;12.00;54.37;100348.38;4959225;29;20073;-90
2022/04/03 09:51:19;;;;;;;7.88;4.15;;;;;;;11.70;56.33;100364.13;4926122;29;20444;-88
2022/04/03 09:54:01;;;;;;;10.32;4.30;;;;;;;11.65;57.01;100355.81;4939539;29;20031;-88
2022/04/03 09:56:34;;;;;;;17.25;5.93;;;;;;;11.96;55.43;100363.84;4941617;29;20034;-87
2022/04/03 09:59:10;;;;;;;8.70;4.80;;;;;;;12.62;55.26;100352.56;4958881;29;20518;-86
2022/04/03 10:01:57;;;;;;;12.93;4.65;;;;;;;12.87;54.25;100364.63;4943735;23;20047;-86
2022/04/03 10:04:23;;;;;;;14.48;5.68;;;;;;;12.49;55.27;100360.31;4943100;29;20051;-86
2022/04/03 10:06:51;;;;;;;8.88;4.78;;;;;;;12.31;54.11;100365.94;4940850;29;20090;-82
2022/04/03 10:09:19;;;;;;;10.82;4.57;;;;;;;12.19;55.04;100363.88;4957106;29;20050;-83
2022/04/03 10:11:46;;;;;;;12.60;4.80;;;;;;;11.86;55.51;100358.72;4960696;28;20468;-83
2022/04/03 10:14:20;;;;;;;13.93;5.30;;;;;;;12.25;54.36;100360.50;4973802;29;20039;-83
2022/04/03 10:16:46;;;;;;;10.00;4.80;;;;;;;12.08;54.57;100358.94;4972305;29;20047;-86
2022/04/03 10:19:12;;;;;;;5.95;4.22;;;;;;;11.95;55.43;100364.00;4945009;29;20046;-85
2022/04/03 10:21:43;;;;;;;10.75;4.53;;;;;;;11.90;55.68;100364.50;4956438;29;20419;-85
2022/04/03 10:24:15;;;;;;;9.35;5.50;;;;;;;11.52;56.33;100365.34;4939549;29;20035;-86
2022/04/03 10:26:42;;;;;;;19.15;5.20;;;;;;;11.84;55.33;100366.03;4956861;29;20471;-83
2022/04/03 10:29:10;;;;;;;13.75;6.50;;;;;;;11.53;57.01;100359.88;4956745;29;20058;-82
2022/04/03 10:31:55;;;;;;;10.45;4.47;;;;;;;11.43;57.89;100351.28;4955002;29;20035;-81
2022/04/03 10:34:22;;;;;;;11.25;4.97;;;;;;;11.53;58.04;100361.69;4955070;29;20491;-84
2022/04/03 10:36:50;;;;;;;12.70;4.88;;;;;;;11.46;57.06;100356.25;4954549;29;20032;-82
2022/04/03 10:39:28;;;;;;;11.48;4.82;;;;;;;11.51;57.64;100361.00;4954541;29;20043;-84
2022/04/03 10:42:20;;;;;;;13.48;4.22;;;;;;;11.40;57.42;100367.56;4954609;29;20039;-83
2022/04/03 10:45:11;;;;;;;8.23;3.90;;;;;;;11.35;57.31;100373.34;4954141;29;20043;-86
2022/04/03 10:47:40;;;;;;;9.68;4.18;;;;;;;11.19;57.67;100360.16;4956807;29;20035;-83
2022/04/03 10:50:11;;;;;;;6.90;4.50;;;;;;;10.96;57.71;100364.50;4956397;29;20033;-87
2022/04/03 10:52:36;;;;;;;7.85;4.20;;;;;;;11.16;57.47;100364.97;4938829;29;20384;-85
2022/04/03 10:55:10;;;;;;;8.10;4.50;;;;;;;11.26;56.96;100368.25;4938651;29;20034;-87
2022/04/03 10:57:43;;;;;;;9.77;4.25;;;;;;;11.43;56.28;100363.72;4940295;29;20035;-84
2022/04/03 11:00:12;;;;;;;;;;;;;;;11.36;56.72;100366.22;4966140;29;20475;-84
2022/04/03 11:02:57;;;;;;;10.45;5.13;;;;;;;11.23;58.46;100371.25;4959671;29;19918;-84
2022/04/03 11:05:25;;;;;;;9.85;5.03;;;;;;;11.46;57.19;100358.06;4882340;29;20102;-83
2022/04/03 11:08:11;;;;;;;11.57;4.93;;;;;;;11.55;56.69;100355.22;4954156;29;20035;-86
2022/04/03 11:11:06;;;;;;;8.32;5.03;;;;;;;11.53;56.42;100351.91;4911374;29;20051;-89
2022/04/03 11:13:33;;;;;;;12.30;4.25;;;;;;;11.41;56.21;100355.91;4947862;29;20049;-87
2022/04/03 11:16:01;;;;;;;9.27;4.00;;;;;;;11.71;55.00;100364.94;4945323;29;20398;-88
2022/04/03 11:18:42;;;;;;;5.63;3.05;;;;;;;12.02;50.97;100370.28;4927067;29;20066;-91
2022/04/03 11:21:28;;;;;;;8.60;3.72;;;;;;;11.97;51.92;100360.16;4959322;28;20554;-86
2022/04/03 11:24:14;;;;;;;8.70;3.90;;;;;;;11.69;52.29;100364.28;4964118;29;20039;-89
2022/04/03 11:26:41;;;;;;;5.80;2.88;;;;;;;11.98;50.68;100358.34;4942380;29;20031;-85
2022/04/03 11:29:09;;;;;;;10.40;3.40;;;;;;;11.81;52.75;100358.44;4958209;29;20119;-85
2022/04/03 11:31:36;;;;;;;7.78;4.15;;;;;;;11.64;54.03;100359.47;4956652;29;20094;-88
2022/04/03 11:34:02;;;;;;;6.85;3.90;;;;;;;11.54;55.53;100348.22;4952051;29;20428;-84
2022/04/03 11:36:31;;;;;;;16.38;8.10;;;;;;;11.64;55.28;100359.47;4954605;29;20071;-86
2022/04/03 11:38:58;;;;;;;5.50;3.20;;;;;;;11.51;52.81;100353.88;4959556;29;20038;-88
2022/04/03 11:41:35;;;;;;;6.80;3.20;;;;;;;11.64;50.88;100359.47;4962978;29;20073;-87
2022/04/03 11:44:15;;;;;;;5.65;2.90;;;;;;;11.63;51.63;100351.69;4956298;29;20027;-85
2022/04/03 11:46:43;;;;;;;5.60;2.83;;;;;;;11.79;52.13;100360.44;4958821;29;20074;-88
2022/04/03 11:49:25;;;;;;;5.53;3.35;;;;;;;11.86;52.07;100363.22;4949376;29;20028;-90
2022/04/03 11:52:05;;;;;;;10.00;3.20;;;;;;;11.77;53.41;100353.63;4963148;28;20080;-89